sensor_id;sensor_type;location;lat;lon;timestamp;temperature;humidity
8655;DHT22;13500;52.514;13.462;2022-11-12T00:00:00;8.20;99.90
8655;DHT22;13500;52.514;13.462;2022-11-12T00:02:48;8.10;99.90
8655;DHT22;13500;52.514;13.462;2022-11-12T00:05:35;8.10;99.90
8655;DHT22;13500;52.514;13.462;2022-11-12T00:08:22;8.20;99.90
8655;DHT22;13500;52.514;13.462;2022-11-12T00:11:09;8.20;99.90
8655;DHT22;13500;52.514;13.462;2022-11-12T00:13:56;8.30;99.90
8655;DHT22;13500;52.514;13.462;2022-11-12T00:16:43;8.30;99.90
8655;DHT22;13500;52.514;13.462;2022-11-12T00:19:32;8.40;99.90
8655;DHT22;13500;52.514;13.462;2022-11-12T00:22:18;8.40;99.90
8655;DHT22;13500;52.514;13.462;2022-11-12T00:25:06;8.40;99.90
8655;DHT22;13500;52.514;13.462;2022-11-12T00:27:53;8.50;99.90
8655;DHT22;13500;52.514;13.462;2022-11-12T00:30:40;8.50;99.90
8655;DHT22;13500;52.514;13.462;2022-11-12T00:33:27;8.50;99.90
8655;DHT22;13500;52.514;13.462;2022-11-12T00:36:15;8.50;99.90
8655;DHT22;13500;52.514;13.462;2022-11-12T00:39:03;8.50;99.90
8655;DHT22;13500;52.514;13.462;2022-11-12T00:41:50;8.50;99.90
8655;DHT22;13500;52.514;13.462;2022-11-12T00:44:36;8.50;99.90
8655;DHT22;13500;52.514;13.462;2022-11-12T00:47:23;8.40;99.90
8655;DHT22;13500;52.514;13.462;2022-11-12T00:50:10;8.40;99.90
8655;DHT22;13500;52.514;13.462;2022-11-12T00:52:58;8.40;99.90
8655;DHT22;13500;52.514;13.462;2022-11-12T00:55:45;8.40;99.90
8655;DHT22;13500;52.514;13.462;2022-11-12T00:58:34;8.40;99.90
8655;DHT22;13500;52.514;13.462;2022-11-12T01:01:21;8.40;99.90
8655;DHT22;13500;52.514;13.462;2022-11-12T01:04:08;8.50;99.90
8655;DHT22;13500;52.514;13.462;2022-11-12T01:06:55;8.50;99.90
8655;DHT22;13500;52.514;13.462;2022-11-12T01:09:43;8.50;99.90
8655;DHT22;13500;52.514;13.462;2022-11-12T01:12:30;8.40;99.90
8655;DHT22;13500;52.514;13.462;2022-11-12T01:15:17;8.50;99.90
8655;DHT22;13500;52.514;13.462;2022-11-12T01:18:03;8.50;99.90
8655;DHT22;13500;52.514;13.462;2022-11-12T01:20:50;8.50;99.90
8655;DHT22;13500;52.514;13.462;2022-11-12T01:23:39;8.50;99.90
8655;DHT22;13500;52.514;13.462;2022-11-12T01:26:27;8.50;99.90
8655;DHT22;13500;52.514;13.462;2022-11-12T01:29:14;8.50;99.90
8655;DHT22;13500;52.514;13.462;2022-11-12T01:32:01;8.50;99.90
8655;DHT22;13500;52.514;13.462;2022-11-12T01:34:49;8.50;99.90
8655;DHT22;13500;52.514;13.462;2022-11-12T01:37:37;8.50;99.90
8655;DHT22;13500;52.514;13.462;2022-11-12T01:40:24;8.50;99.90
8655;DHT22;13500;52.514;13.462;2022-11-12T01:43:13;8.50;99.90
8655;DHT22;13500;52.514;13.462;2022-11-12T01:46:02;8.50;99.90
8655;DHT22;13500;52.514;13.462;2022-11-12T01:48:52;8.40;99.90
8655;DHT22;13500;52.514;13.462;2022-11-12T01:51:43;8.40;99.90
8655;DHT22;13500;52.514;13.462;2022-11-12T01:54:32;8.40;99.90
8655;DHT22;13500;52.514;13.462;2022-11-12T01:57:24;8.40;99.90
8655;DHT22;13500;52.514;13.462;2022-11-12T02:00:20;8.50;99.90
8655;DHT22;13500;52.514;13.462;2022-11-12T02:03:11;8.50;99.90
8655;DHT22;13500;52.514;13.462;2022-11-12T02:06:01;8.50;99.90
8655;DHT22;13500;52.514;13.462;2022-11-12T02:08:49;8.60;99.90
8655;DHT22;13500;52.514;13.462;2022-11-12T02:11:36;8.50;99.90
8655;DHT22;13500;52.514;13.462;2022-11-12T02:14:22;8.60;99.90
8655;DHT22;13500;52.514;13.462;2022-11-12T02:17:10;8.60;99.90
8655;DHT22;13500;52.514;13.462;2022-11-12T02:19:57;8.50;99.90
8655;DHT22;13500;52.514;13.462;2022-11-12T02:22:45;8.60;99.90
8655;DHT22;13500;52.514;13.462;2022-11-12T02:25:32;8.50;99.90
8655;DHT22;13500;52.514;13.462;2022-11-12T02:28:20;8.50;99.90
8655;DHT22;13500;52.514;13.462;2022-11-12T02:31:07;8.50;99.90
8655;DHT22;13500;52.514;13.462;2022-11-12T02:33:54;8.50;99.90
8655;DHT22;13500;52.514;13.462;2022-11-12T02:36:41;8.50;99.90
8655;DHT22;13500;52.514;13.462;2022-11-12T02:39:29;8.50;99.90
8655;DHT22;13500;52.514;13.462;2022-11-12T02:42:16;8.50;99.90
8655;DHT22;13500;52.514;13.462;2022-11-12T02:45:04;8.50;99.90
8655;DHT22;13500;52.514;13.462;2022-11-12T02:47:51;8.50;99.90
8655;DHT22;13500;52.514;13.462;2022-11-12T02:50:38;8.50;99.90
8655;DHT22;13500;52.514;13.462;2022-11-12T02:53:25;8.50;99.90
8655;DHT22;13500;52.514;13.462;2022-11-12T02:56:13;8.50;99.90
8655;DHT22;13500;52.514;13.462;2022-11-12T02:59:00;8.50;99.90
8655;DHT22;13500;52.514;13.462;2022-11-12T03:01:47;8.50;99.90
8655;DHT22;13500;52.514;13.462;2022-11-12T03:04:34;8.50;99.90
8655;DHT22;13500;52.514;13.462;2022-11-12T03:07:21;8.50;99.90
8655;DHT22;13500;52.514;13.462;2022-11-12T03:10:08;8.50;99.90
8655;DHT22;13500;52.514;13.462;2022-11-12T03:12:57;8.50;99.90
8655;DHT22;13500;52.514;13.462;2022-11-12T03:15:45;8.50;99.90
8655;DHT22;13500;52.514;13.462;2022-11-12T03:18:32;8.50;99.90
8655;DHT22;13500;52.514;13.462;2022-11-12T03:21:18;8.50;99.90
8655;DHT22;13500;52.514;13.462;2022-11-12T03:24:06;8.50;99.90
8655;DHT22;13500;52.514;13.462;2022-11-12T03:26:53;8.50;99.90
8655;DHT22;13500;52.514;13.462;2022-11-12T03:29:41;8.50;99.90
8655;DHT22;13500;52.514;13.462;2022-11-12T03:32:28;8.40;99.90
8655;DHT22;13500;52.514;13.462;2022-11-12T03:35:15;8.30;99.90
8655;DHT22;13500;52.514;13.462;2022-11-12T03:38:02;8.30;99.90
8655;DHT22;13500;52.514;13.462;2022-11-12T03:40:49;8.20;99.90
8655;DHT22;13500;52.514;13.462;2022-11-12T03:43:36;8.20;99.90
8655;DHT22;13500;52.514;13.462;2022-11-12T03:46:24;8.10;99.90
8655;DHT22;13500;52.514;13.462;2022-11-12T03:49:11;8.00;99.90
8655;DHT22;13500;52.514;13.462;2022-11-12T03:51:58;8.00;99.90
8655;DHT22;13500;52.514;13.462;2022-11-12T03:54:45;7.90;99.90
8655;DHT22;13500;52.514;13.462;2022-11-12T03:57:32;7.80;99.90
8655;DHT22;13500;52.514;13.462;2022-11-12T04:00:19;7.80;99.90
8655;DHT22;13500;52.514;13.462;2022-11-12T04:03:08;7.70;99.90
8655;DHT22;13500;52.514;13.462;2022-11-12T04:05:54;7.60;99.90
8655;DHT22;13500;52.514;13.462;2022-11-12T04:08:58;7.60;99.90
8655;DHT22;13500;52.514;13.462;2022-11-12T04:11:45;7.50;99.90
8655;DHT22;13500;52.514;13.462;2022-11-12T04:14:32;7.50;99.90
8655;DHT22;13500;52.514;13.462;2022-11-12T04:17:19;7.50;99.90
8655;DHT22;13500;52.514;13.462;2022-11-12T04:20:24;7.40;99.90
8655;DHT22;13500;52.514;13.462;2022-11-12T04:23:29;7.40;99.90
8655;DHT22;13500;52.514;13.462;2022-11-12T04:26:16;7.40;99.90
8655;DHT22;13500;52.514;13.462;2022-11-12T04:29:07;7.30;99.90
8655;DHT22;13500;52.514;13.462;2022-11-12T04:32:12;7.30;99.90
8655;DHT22;13500;52.514;13.462;2022-11-12T04:34:59;7.30;99.90
8655;DHT22;13500;52.514;13.462;2022-11-12T04:37:47;7.30;99.90
8655;DHT22;13500;52.514;13.462;2022-11-12T04:40:34;7.20;99.90
8655;DHT22;13500;52.514;13.462;2022-11-12T04:43:39;7.20;99.90
8655;DHT22;13500;52.514;13.462;2022-11-12T04:46:43;7.20;99.90
8655;DHT22;13500;52.514;13.462;2022-11-12T04:49:30;7.20;99.90
8655;DHT22;13500;52.514;13.462;2022-11-12T04:52:17;7.10;99.90
8655;DHT22;13500;52.514;13.462;2022-11-12T04:55:06;7.10;99.90
8655;DHT22;13500;52.514;13.462;2022-11-12T04:57:54;7.10;99.90
8655;DHT22;13500;52.514;13.462;2022-11-12T05:00:46;7.10;99.90
8655;DHT22;13500;52.514;13.462;2022-11-12T05:03:33;7.10;99.90
8655;DHT22;13500;52.514;13.462;2022-11-12T05:06:20;7.10;99.90
8655;DHT22;13500;52.514;13.462;2022-11-12T05:09:22;7.00;99.90
8655;DHT22;13500;52.514;13.462;2022-11-12T05:12:11;7.00;99.90
8655;DHT22;13500;52.514;13.462;2022-11-12T05:14:58;7.00;99.90
8655;DHT22;13500;52.514;13.462;2022-11-12T05:17:45;7.00;99.90
8655;DHT22;13500;52.514;13.462;2022-11-12T05:20:31;6.90;99.90
8655;DHT22;13500;52.514;13.462;2022-11-12T05:23:18;6.90;99.90
8655;DHT22;13500;52.514;13.462;2022-11-12T05:26:05;6.90;99.90
8655;DHT22;13500;52.514;13.462;2022-11-12T05:28:53;6.80;99.90
8655;DHT22;13500;52.514;13.462;2022-11-12T05:31:40;6.80;99.90
8655;DHT22;13500;52.514;13.462;2022-11-12T05:34:26;6.80;99.90
8655;DHT22;13500;52.514;13.462;2022-11-12T05:37:15;6.80;99.90
8655;DHT22;13500;52.514;13.462;2022-11-12T05:40:02;6.70;99.90
8655;DHT22;13500;52.514;13.462;2022-11-12T05:42:48;6.70;99.90
8655;DHT22;13500;52.514;13.462;2022-11-12T05:45:36;6.80;99.90
8655;DHT22;13500;52.514;13.462;2022-11-12T05:48:23;6.70;99.90
8655;DHT22;13500;52.514;13.462;2022-11-12T05:51:11;6.70;99.90
8655;DHT22;13500;52.514;13.462;2022-11-12T05:54:00;6.70;99.90
8655;DHT22;13500;52.514;13.462;2022-11-12T05:56:47;6.70;99.90
8655;DHT22;13500;52.514;13.462;2022-11-12T05:59:33;6.60;99.90
8655;DHT22;13500;52.514;13.462;2022-11-12T06:02:22;6.60;99.90
8655;DHT22;13500;52.514;13.462;2022-11-12T06:05:08;6.60;99.90
8655;DHT22;13500;52.514;13.462;2022-11-12T06:07:55;6.60;99.90
8655;DHT22;13500;52.514;13.462;2022-11-12T06:10:47;6.60;99.90
8655;DHT22;13500;52.514;13.462;2022-11-12T06:13:34;6.60;99.90
8655;DHT22;13500;52.514;13.462;2022-11-12T06:16:21;6.70;99.90
8655;DHT22;13500;52.514;13.462;2022-11-12T06:19:09;6.60;99.90
8655;DHT22;13500;52.514;13.462;2022-11-12T06:21:55;6.60;99.90
8655;DHT22;13500;52.514;13.462;2022-11-12T06:24:42;6.60;99.90
8655;DHT22;13500;52.514;13.462;2022-11-12T06:27:29;6.50;99.90
8655;DHT22;13500;52.514;13.462;2022-11-12T06:30:16;6.50;99.90
8655;DHT22;13500;52.514;13.462;2022-11-12T06:33:10;6.50;99.90
8655;DHT22;13500;52.514;13.462;2022-11-12T06:35:58;6.50;99.90
8655;DHT22;13500;52.514;13.462;2022-11-12T06:38:47;6.50;99.90
8655;DHT22;13500;52.514;13.462;2022-11-12T06:41:34;6.60;99.90
8655;DHT22;13500;52.514;13.462;2022-11-12T06:44:21;6.60;99.90
8655;DHT22;13500;52.514;13.462;2022-11-12T06:47:08;6.60;99.90
8655;DHT22;13500;52.514;13.462;2022-11-12T06:49:55;6.60;99.90
8655;DHT22;13500;52.514;13.462;2022-11-12T06:52:43;6.70;99.90
8655;DHT22;13500;52.514;13.462;2022-11-12T06:55:30;6.80;99.90
8655;DHT22;13500;52.514;13.462;2022-11-12T06:58:17;6.80;99.90
8655;DHT22;13500;52.514;13.462;2022-11-12T07:01:05;6.90;99.90
8655;DHT22;13500;52.514;13.462;2022-11-12T07:03:56;6.90;99.90
8655;DHT22;13500;52.514;13.462;2022-11-12T07:06:43;7.00;99.90
8655;DHT22;13500;52.514;13.462;2022-11-12T07:09:31;7.20;99.90
8655;DHT22;13500;52.514;13.462;2022-11-12T07:12:18;7.30;99.90
8655;DHT22;13500;52.514;13.462;2022-11-12T07:15:05;7.70;99.90
8655;DHT22;13500;52.514;13.462;2022-11-12T07:17:52;8.20;99.90
8655;DHT22;13500;52.514;13.462;2022-11-12T07:20:39;8.90;99.90
8655;DHT22;13500;52.514;13.462;2022-11-12T07:23:27;9.20;99.90
8655;DHT22;13500;52.514;13.462;2022-11-12T07:26:17;9.40;99.90
8655;DHT22;13500;52.514;13.462;2022-11-12T07:29:05;9.30;99.90
8655;DHT22;13500;52.514;13.462;2022-11-12T07:31:52;9.10;99.90
8655;DHT22;13500;52.514;13.462;2022-11-12T07:34:38;8.90;99.90
8655;DHT22;13500;52.514;13.462;2022-11-12T07:37:25;8.70;99.90
8655;DHT22;13500;52.514;13.462;2022-11-12T07:40:12;8.60;99.90
8655;DHT22;13500;52.514;13.462;2022-11-12T07:43:00;8.70;99.90
8655;DHT22;13500;52.514;13.462;2022-11-12T07:45:47;8.90;99.90
8655;DHT22;13500;52.514;13.462;2022-11-12T07:48:34;9.00;99.90
8655;DHT22;13500;52.514;13.462;2022-11-12T07:51:23;8.90;99.90
8655;DHT22;13500;52.514;13.462;2022-11-12T07:54:10;9.00;99.90
8655;DHT22;13500;52.514;13.462;2022-11-12T07:56:57;9.10;99.90
8655;DHT22;13500;52.514;13.462;2022-11-12T07:59:45;9.10;99.90
8655;DHT22;13500;52.514;13.462;2022-11-12T08:02:33;9.10;99.90
8655;DHT22;13500;52.514;13.462;2022-11-12T08:05:19;9.10;99.90
8655;DHT22;13500;52.514;13.462;2022-11-12T08:08:06;9.30;99.90
8655;DHT22;13500;52.514;13.462;2022-11-12T08:10:54;9.50;99.90
8655;DHT22;13500;52.514;13.462;2022-11-12T08:13:41;9.50;99.90
8655;DHT22;13500;52.514;13.462;2022-11-12T08:16:30;9.70;99.90
8655;DHT22;13500;52.514;13.462;2022-11-12T08:19:16;10.50;99.90
8655;DHT22;13500;52.514;13.462;2022-11-12T08:22:03;11.00;99.90
8655;DHT22;13500;52.514;13.462;2022-11-12T08:24:50;11.40;99.90
8655;DHT22;13500;52.514;13.462;2022-11-12T08:27:37;12.00;99.90
8655;DHT22;13500;52.514;13.462;2022-11-12T08:30:28;12.90;99.90
8655;DHT22;13500;52.514;13.462;2022-11-12T08:33:16;14.20;99.90
8655;DHT22;13500;52.514;13.462;2022-11-12T08:36:04;15.00;99.90
8655;DHT22;13500;52.514;13.462;2022-11-12T08:38:51;15.90;99.90
8655;DHT22;13500;52.514;13.462;2022-11-12T08:41:38;17.30;99.90
8655;DHT22;13500;52.514;13.462;2022-11-12T08:44:25;18.50;99.90
8655;DHT22;13500;52.514;13.462;2022-11-12T08:47:12;18.70;99.90
8655;DHT22;13500;52.514;13.462;2022-11-12T08:50:01;19.70;99.90
8655;DHT22;13500;52.514;13.462;2022-11-12T08:52:47;20.10;99.90
8655;DHT22;13500;52.514;13.462;2022-11-12T08:55:35;20.30;99.90
8655;DHT22;13500;52.514;13.462;2022-11-12T08:58:22;20.80;99.40
8655;DHT22;13500;52.514;13.462;2022-11-12T09:01:11;21.40;99.80
8655;DHT22;13500;52.514;13.462;2022-11-12T09:03:57;22.00;97.60
8655;DHT22;13500;52.514;13.462;2022-11-12T09:06:46;22.40;97.30
8655;DHT22;13500;52.514;13.462;2022-11-12T09:09:38;23.20;96.20
8655;DHT22;13500;52.514;13.462;2022-11-12T09:12:25;24.00;93.60
8655;DHT22;13500;52.514;13.462;2022-11-12T09:15:12;23.20;92.30
8655;DHT22;13500;52.514;13.462;2022-11-12T09:18:19;24.10;92.80
8655;DHT22;13500;52.514;13.462;2022-11-12T09:21:09;24.10;91.20
8655;DHT22;13500;52.514;13.462;2022-11-12T09:23:57;24.70;90.40
8655;DHT22;13500;52.514;13.462;2022-11-12T09:26:44;25.00;89.70
8655;DHT22;13500;52.514;13.462;2022-11-12T09:29:32;25.10;88.20
8655;DHT22;13500;52.514;13.462;2022-11-12T09:32:19;25.90;88.90
8655;DHT22;13500;52.514;13.462;2022-11-12T09:35:07;27.50;86.00
8655;DHT22;13500;52.514;13.462;2022-11-12T09:37:53;28.30;83.10
8655;DHT22;13500;52.514;13.462;2022-11-12T09:40:59;28.10;78.70
8655;DHT22;13500;52.514;13.462;2022-11-12T09:43:49;27.20;77.20
8655;DHT22;13500;52.514;13.462;2022-11-12T09:46:40;26.80;78.90
8655;DHT22;13500;52.514;13.462;2022-11-12T09:49:32;27.20;80.60
8655;DHT22;13500;52.514;13.462;2022-11-12T09:52:24;28.40;75.00
8655;DHT22;13500;52.514;13.462;2022-11-12T09:55:17;28.80;75.70
8655;DHT22;13500;52.514;13.462;2022-11-12T09:58:10;27.10;76.50
8655;DHT22;13500;52.514;13.462;2022-11-12T10:01:02;26.50;76.50
8655;DHT22;13500;52.514;13.462;2022-11-12T10:04:03;23.60;77.40
8655;DHT22;13500;52.514;13.462;2022-11-12T10:07:04;22.10;81.40
8655;DHT22;13500;52.514;13.462;2022-11-12T10:10:00;21.80;83.50
8655;DHT22;13500;52.514;13.462;2022-11-12T10:12:59;21.40;84.80
8655;DHT22;13500;52.514;13.462;2022-11-12T10:15:58;20.50;86.00
8655;DHT22;13500;52.514;13.462;2022-11-12T10:19:29;19.50;88.40
8655;DHT22;13500;52.514;13.462;2022-11-12T10:22:28;18.80;90.70
8655;DHT22;13500;52.514;13.462;2022-11-12T10:25:19;18.70;91.30
8655;DHT22;13500;52.514;13.462;2022-11-12T10:28:16;18.80;91.50
8655;DHT22;13500;52.514;13.462;2022-11-12T10:31:13;18.70;92.00
8655;DHT22;13500;52.514;13.462;2022-11-12T10:34:14;18.10;92.50
8655;DHT22;13500;52.514;13.462;2022-11-12T10:37:04;17.40;93.50
8655;DHT22;13500;52.514;13.462;2022-11-12T10:39:53;17.60;94.60
8655;DHT22;13500;52.514;13.462;2022-11-12T10:42:55;17.80;94.60
8655;DHT22;13500;52.514;13.462;2022-11-12T10:45:44;17.00;95.00
8655;DHT22;13500;52.514;13.462;2022-11-12T10:48:34;18.10;95.90
8655;DHT22;13500;52.514;13.462;2022-11-12T10:51:27;19.00;94.50
8655;DHT22;13500;52.514;13.462;2022-11-12T10:54:24;18.70;95.00
8655;DHT22;13500;52.514;13.462;2022-11-12T10:57:21;19.20;94.50
8655;DHT22;13500;52.514;13.462;2022-11-12T11:00:19;20.00;95.10
8655;DHT22;13500;52.514;13.462;2022-11-12T11:03:16;20.30;94.40
8655;DHT22;13500;52.514;13.462;2022-11-12T11:06:16;20.00;94.70
8655;DHT22;13500;52.514;13.462;2022-11-12T11:09:15;19.30;94.70
8655;DHT22;13500;52.514;13.462;2022-11-12T11:12:04;19.60;95.60
8655;DHT22;13500;52.514;13.462;2022-11-12T11:15:05;20.60;94.90
8655;DHT22;13500;52.514;13.462;2022-11-12T11:17:54;19.30;95.00
8655;DHT22;13500;52.514;13.462;2022-11-12T11:20:44;19.00;95.60
8655;DHT22;13500;52.514;13.462;2022-11-12T11:23:41;18.60;96.60
8655;DHT22;13500;52.514;13.462;2022-11-12T11:26:36;19.10;96.90
8655;DHT22;13500;52.514;13.462;2022-11-12T11:29:40;19.80;96.20
8655;DHT22;13500;52.514;13.462;2022-11-12T11:35:53;18.20;96.90
8655;DHT22;13500;52.514;13.462;2022-11-12T11:39:00;17.80;97.40
8655;DHT22;13500;52.514;13.462;2022-11-12T11:41:55;18.20;98.10
8655;DHT22;13500;52.514;13.462;2022-11-12T11:44:53;18.60;97.70
8655;DHT22;13500;52.514;13.462;2022-11-12T11:47:47;19.00;97.50
8655;DHT22;13500;52.514;13.462;2022-11-12T11:50:53;19.30;96.80
8655;DHT22;13500;52.514;13.462;2022-11-12T11:53:50;19.40;96.60
8655;DHT22;13500;52.514;13.462;2022-11-12T11:56:42;19.30;97.30
8655;DHT22;13500;52.514;13.462;2022-11-12T11:59:41;18.80;97.00
8655;DHT22;13500;52.514;13.462;2022-11-12T12:03:00;18.10;97.20
8655;DHT22;13500;52.514;13.462;2022-11-12T12:06:08;18.20;98.00
8655;DHT22;13500;52.514;13.462;2022-11-12T12:09:22;18.20;98.10
8655;DHT22;13500;52.514;13.462;2022-11-12T12:12:21;18.60;97.80
8655;DHT22;13500;52.514;13.462;2022-11-12T12:15:41;18.60;97.60
8655;DHT22;13500;52.514;13.462;2022-11-12T12:18:37;18.20;98.20
8655;DHT22;13500;52.514;13.462;2022-11-12T12:21:28;17.80;98.60
8655;DHT22;13500;52.514;13.462;2022-11-12T12:24:19;18.00;98.30
8655;DHT22;13500;52.514;13.462;2022-11-12T12:27:11;17.40;98.80
8655;DHT22;13500;52.514;13.462;2022-11-12T12:30:02;17.30;99.00
8655;DHT22;13500;52.514;13.462;2022-11-12T12:32:54;17.80;99.40
8655;DHT22;13500;52.514;13.462;2022-11-12T12:35:50;17.00;99.40
8655;DHT22;13500;52.514;13.462;2022-11-12T12:38:42;17.00;99.90
8655;DHT22;13500;52.514;13.462;2022-11-12T12:41:31;17.30;99.80
8655;DHT22;13500;52.514;13.462;2022-11-12T12:44:26;17.40;99.70
8655;DHT22;13500;52.514;13.462;2022-11-12T12:47:34;17.60;99.70
8655;DHT22;13500;52.514;13.462;2022-11-12T12:50:22;17.50;99.60
8655;DHT22;13500;52.514;13.462;2022-11-12T12:53:17;17.30;99.70
8655;DHT22;13500;52.514;13.462;2022-11-12T12:56:05;17.00;99.90
8655;DHT22;13500;52.514;13.462;2022-11-12T12:59:20;16.60;99.90
8655;DHT22;13500;52.514;13.462;2022-11-12T13:02:19;16.20;99.90
8655;DHT22;13500;52.514;13.462;2022-11-12T13:05:28;15.80;99.90
8655;DHT22;13500;52.514;13.462;2022-11-12T13:08:19;15.40;99.90
8655;DHT22;13500;52.514;13.462;2022-11-12T13:11:09;15.20;99.90
8655;DHT22;13500;52.514;13.462;2022-11-12T13:13:55;15.10;99.90
8655;DHT22;13500;52.514;13.462;2022-11-12T13:16:56;15.00;99.90
8655;DHT22;13500;52.514;13.462;2022-11-12T13:19:46;14.90;99.90
8655;DHT22;13500;52.514;13.462;2022-11-12T13:22:54;14.80;99.90
8655;DHT22;13500;52.514;13.462;2022-11-12T13:25:41;14.60;99.90
8655;DHT22;13500;52.514;13.462;2022-11-12T13:28:28;14.60;99.90
8655;DHT22;13500;52.514;13.462;2022-11-12T13:31:26;14.60;99.90
8655;DHT22;13500;52.514;13.462;2022-11-12T13:34:21;14.60;99.90
8655;DHT22;13500;52.514;13.462;2022-11-12T13:37:17;14.50;99.90
8655;DHT22;13500;52.514;13.462;2022-11-12T13:40:12;14.40;99.90
8655;DHT22;13500;52.514;13.462;2022-11-12T13:43:05;14.40;99.90
8655;DHT22;13500;52.514;13.462;2022-11-12T13:45:56;14.30;99.90
8655;DHT22;13500;52.514;13.462;2022-11-12T13:48:46;14.30;99.90
8655;DHT22;13500;52.514;13.462;2022-11-12T13:51:37;14.30;99.90
8655;DHT22;13500;52.514;13.462;2022-11-12T13:54:34;14.20;99.90
8655;DHT22;13500;52.514;13.462;2022-11-12T13:57:29;14.10;99.90
8655;DHT22;13500;52.514;13.462;2022-11-12T14:00:22;14.00;99.90
8655;DHT22;13500;52.514;13.462;2022-11-12T14:03:16;14.10;99.90
8655;DHT22;13500;52.514;13.462;2022-11-12T14:06:07;14.00;99.90
8655;DHT22;13500;52.514;13.462;2022-11-12T14:09:11;14.00;99.90
8655;DHT22;13500;52.514;13.462;2022-11-12T14:12:12;13.80;99.90
8655;DHT22;13500;52.514;13.462;2022-11-12T14:15:19;13.80;99.90
8655;DHT22;13500;52.514;13.462;2022-11-12T14:18:14;13.90;99.90
8655;DHT22;13500;52.514;13.462;2022-11-12T14:21:05;13.80;99.90
8655;DHT22;13500;52.514;13.462;2022-11-12T14:23:52;13.80;99.90
8655;DHT22;13500;52.514;13.462;2022-11-12T14:26:41;13.70;99.90
8655;DHT22;13500;52.514;13.462;2022-11-12T14:29:29;13.70;99.90
8655;DHT22;13500;52.514;13.462;2022-11-12T14:32:23;13.70;99.90
8655;DHT22;13500;52.514;13.462;2022-11-12T14:35:17;13.50;99.90
8655;DHT22;13500;52.514;13.462;2022-11-12T14:38:15;13.50;99.90
8655;DHT22;13500;52.514;13.462;2022-11-12T14:41:07;13.40;99.90
8655;DHT22;13500;52.514;13.462;2022-11-12T14:43:57;13.40;99.90
8655;DHT22;13500;52.514;13.462;2022-11-12T14:46:58;13.40;99.90
8655;DHT22;13500;52.514;13.462;2022-11-12T14:49:48;13.30;99.90
8655;DHT22;13500;52.514;13.462;2022-11-12T14:52:39;13.40;99.90
8655;DHT22;13500;52.514;13.462;2022-11-12T14:55:29;13.40;99.90
8655;DHT22;13500;52.514;13.462;2022-11-12T14:58:18;13.20;99.90
8655;DHT22;13500;52.514;13.462;2022-11-12T15:01:22;13.10;99.90
8655;DHT22;13500;52.514;13.462;2022-11-12T15:04:36;13.10;99.90
8655;DHT22;13500;52.514;13.462;2022-11-12T15:07:26;13.00;99.90
8655;DHT22;13500;52.514;13.462;2022-11-12T15:10:32;13.00;99.90
8655;DHT22;13500;52.514;13.462;2022-11-12T15:13:21;13.00;99.90
8655;DHT22;13500;52.514;13.462;2022-11-12T15:16:10;12.80;99.90
8655;DHT22;13500;52.514;13.462;2022-11-12T15:19:17;12.80;99.90
8655;DHT22;13500;52.514;13.462;2022-11-12T15:22:05;12.70;99.90
8655;DHT22;13500;52.514;13.462;2022-11-12T15:24:53;12.60;99.90
8655;DHT22;13500;52.514;13.462;2022-11-12T15:27:41;12.50;99.90
8655;DHT22;13500;52.514;13.462;2022-11-12T15:30:29;12.50;99.90
8655;DHT22;13500;52.514;13.462;2022-11-12T15:33:20;12.50;99.90
8655;DHT22;13500;52.514;13.462;2022-11-12T15:36:14;12.40;99.90
8655;DHT22;13500;52.514;13.462;2022-11-12T15:39:02;12.30;99.90
8655;DHT22;13500;52.514;13.462;2022-11-12T15:41:57;12.20;99.90
8655;DHT22;13500;52.514;13.462;2022-11-12T15:44:45;12.10;99.90
8655;DHT22;13500;52.514;13.462;2022-11-12T15:47:32;12.00;99.90
8655;DHT22;13500;52.514;13.462;2022-11-12T15:50:21;12.00;99.90
8655;DHT22;13500;52.514;13.462;2022-11-12T15:53:08;11.90;99.90
8655;DHT22;13500;52.514;13.462;2022-11-12T15:55:54;11.80;99.90
8655;DHT22;13500;52.514;13.462;2022-11-12T15:58:43;11.80;99.90
8655;DHT22;13500;52.514;13.462;2022-11-12T16:01:30;11.70;99.90
8655;DHT22;13500;52.514;13.462;2022-11-12T16:04:17;11.60;99.90
8655;DHT22;13500;52.514;13.462;2022-11-12T16:07:04;11.50;99.90
8655;DHT22;13500;52.514;13.462;2022-11-12T16:09:51;11.50;99.90
8655;DHT22;13500;52.514;13.462;2022-11-12T16:12:38;11.40;99.90
8655;DHT22;13500;52.514;13.462;2022-11-12T16:15:29;11.30;99.90
8655;DHT22;13500;52.514;13.462;2022-11-12T16:18:16;11.40;99.90
8655;DHT22;13500;52.514;13.462;2022-11-12T16:21:04;11.30;99.90
8655;DHT22;13500;52.514;13.462;2022-11-12T16:23:50;11.30;99.90
8655;DHT22;13500;52.514;13.462;2022-11-12T16:26:37;11.20;99.90
8655;DHT22;13500;52.514;13.462;2022-11-12T16:29:24;11.10;99.90
8655;DHT22;13500;52.514;13.462;2022-11-12T16:32:13;11.00;99.90
8655;DHT22;13500;52.514;13.462;2022-11-12T16:34:59;11.00;99.90
8655;DHT22;13500;52.514;13.462;2022-11-12T16:37:46;10.90;99.90
8655;DHT22;13500;52.514;13.462;2022-11-12T16:40:34;10.90;99.90
8655;DHT22;13500;52.514;13.462;2022-11-12T16:43:20;10.80;99.90
8655;DHT22;13500;52.514;13.462;2022-11-12T16:46:20;10.80;99.90
8655;DHT22;13500;52.514;13.462;2022-11-12T16:49:12;10.70;99.90
8655;DHT22;13500;52.514;13.462;2022-11-12T16:51:59;10.70;99.90
8655;DHT22;13500;52.514;13.462;2022-11-12T16:54:46;10.70;99.90
8655;DHT22;13500;52.514;13.462;2022-11-12T16:57:33;10.70;99.90
8655;DHT22;13500;52.514;13.462;2022-11-12T17:00:20;10.70;99.90
8655;DHT22;13500;52.514;13.462;2022-11-12T17:03:10;10.70;99.90
8655;DHT22;13500;52.514;13.462;2022-11-12T17:05:59;10.60;99.90
8655;DHT22;13500;52.514;13.462;2022-11-12T17:08:47;10.50;99.90
8655;DHT22;13500;52.514;13.462;2022-11-12T17:11:34;10.50;99.90
8655;DHT22;13500;52.514;13.462;2022-11-12T17:14:21;10.50;99.90
8655;DHT22;13500;52.514;13.462;2022-11-12T17:17:12;10.50;99.90
8655;DHT22;13500;52.514;13.462;2022-11-12T17:19:59;10.50;99.90
8655;DHT22;13500;52.514;13.462;2022-11-12T17:22:47;10.50;99.90
8655;DHT22;13500;52.514;13.462;2022-11-12T17:25:34;10.40;99.90
8655;DHT22;13500;52.514;13.462;2022-11-12T17:28:21;10.30;99.90
8655;DHT22;13500;52.514;13.462;2022-11-12T17:31:10;10.30;99.90
8655;DHT22;13500;52.514;13.462;2022-11-12T17:33:57;10.30;99.90
8655;DHT22;13500;52.514;13.462;2022-11-12T17:36:43;10.20;99.90
8655;DHT22;13500;52.514;13.462;2022-11-12T17:39:32;10.10;99.90
8655;DHT22;13500;52.514;13.462;2022-11-12T17:42:18;10.10;99.90
8655;DHT22;13500;52.514;13.462;2022-11-12T17:45:06;10.10;99.90
8655;DHT22;13500;52.514;13.462;2022-11-12T17:47:53;10.00;99.90
8655;DHT22;13500;52.514;13.462;2022-11-12T17:50:40;10.00;99.90
8655;DHT22;13500;52.514;13.462;2022-11-12T17:53:28;9.90;99.90
8655;DHT22;13500;52.514;13.462;2022-11-12T17:56:18;9.90;99.90
8655;DHT22;13500;52.514;13.462;2022-11-12T17:59:05;9.90;99.90
8655;DHT22;13500;52.514;13.462;2022-11-12T18:01:52;9.80;99.90
8655;DHT22;13500;52.514;13.462;2022-11-12T18:04:39;9.80;99.90
8655;DHT22;13500;52.514;13.462;2022-11-12T18:07:26;9.80;99.90